sensor_id;sensor_type;location;lat;lon;timestamp;temperature;humidity
33007;DHT22;19361;51.598;7.650;2023-12-07T00:03:46;6.40;74.30
33007;DHT22;19361;51.598;7.650;2023-12-07T00:08:47;6.40;74.40
33007;DHT22;19361;51.598;7.650;2023-12-07T00:13:48;6.30;74.40
33007;DHT22;19361;51.598;7.650;2023-12-07T00:18:49;6.40;74.50
33007;DHT22;19361;51.598;7.650;2023-12-07T00:23:49;6.40;74.50
33007;DHT22;19361;51.598;7.650;2023-12-07T00:28:50;6.30;74.50
33007;DHT22;19361;51.598;7.650;2023-12-07T00:33:51;6.40;74.60
33007;DHT22;19361;51.598;7.650;2023-12-07T00:38:51;6.30;74.50
33007;DHT22;19361;51.598;7.650;2023-12-07T00:43:52;6.30;74.50
33007;DHT22;19361;51.598;7.650;2023-12-07T00:48:53;6.30;74.50
33007;DHT22;19361;51.598;7.650;2023-12-07T00:53:53;6.30;74.40
33007;DHT22;19361;51.598;7.650;2023-12-07T00:58:54;6.30;74.40
33007;DHT22;19361;51.598;7.650;2023-12-07T01:03:55;6.30;74.40
33007;DHT22;19361;51.598;7.650;2023-12-07T01:08:55;6.20;74.30
33007;DHT22;19361;51.598;7.650;2023-12-07T01:13:56;6.20;74.30
33007;DHT22;19361;51.598;7.650;2023-12-07T01:18:56;6.20;74.30
33007;DHT22;19361;51.598;7.650;2023-12-07T01:23:58;6.20;74.30
33007;DHT22;19361;51.598;7.650;2023-12-07T01:28:59;6.10;74.20
33007;DHT22;19361;51.598;7.650;2023-12-07T01:33:59;6.10;74.60
33007;DHT22;19361;51.598;7.650;2023-12-07T01:39:00;6.00;74.00
33007;DHT22;19361;51.598;7.650;2023-12-07T01:44:00;6.00;74.20
33007;DHT22;19361;51.598;7.650;2023-12-07T01:49:02;6.00;74.40
33007;DHT22;19361;51.598;7.650;2023-12-07T01:54:02;5.90;74.50
33007;DHT22;19361;51.598;7.650;2023-12-07T01:59:03;5.90;74.60
33007;DHT22;19361;51.598;7.650;2023-12-07T02:04:04;5.90;74.70
33007;DHT22;19361;51.598;7.650;2023-12-07T02:09:05;5.90;74.80
33007;DHT22;19361;51.598;7.650;2023-12-07T02:14:06;5.90;75.00
33007;DHT22;19361;51.598;7.650;2023-12-07T02:19:21;5.90;74.90
33007;DHT22;19361;51.598;7.650;2023-12-07T02:24:33;5.90;75.00
33007;DHT22;19361;51.598;7.650;2023-12-07T02:29:35;5.90;74.90
33007;DHT22;19361;51.598;7.650;2023-12-07T02:34:35;6.00;74.90
33007;DHT22;19361;51.598;7.650;2023-12-07T02:39:36;6.00;74.90
33007;DHT22;19361;51.598;7.650;2023-12-07T02:44:37;6.00;74.90
33007;DHT22;19361;51.598;7.650;2023-12-07T02:49:38;6.00;74.80
33007;DHT22;19361;51.598;7.650;2023-12-07T02:54:39;6.00;74.70
33007;DHT22;19361;51.598;7.650;2023-12-07T02:59:40;6.00;74.70
33007;DHT22;19361;51.598;7.650;2023-12-07T03:04:41;6.00;74.70
33007;DHT22;19361;51.598;7.650;2023-12-07T03:09:42;6.00;74.70
33007;DHT22;19361;51.598;7.650;2023-12-07T03:14:42;6.00;74.60
33007;DHT22;19361;51.598;7.650;2023-12-07T03:19:43;6.00;74.60
33007;DHT22;19361;51.598;7.650;2023-12-07T03:24:50;6.00;74.60
33007;DHT22;19361;51.598;7.650;2023-12-07T03:29:51;5.90;74.50
33007;DHT22;19361;51.598;7.650;2023-12-07T03:34:52;5.90;74.50
33007;DHT22;19361;51.598;7.650;2023-12-07T03:39:52;5.90;74.50
33007;DHT22;19361;51.598;7.650;2023-12-07T03:44:53;5.90;74.60
33007;DHT22;19361;51.598;7.650;2023-12-07T03:49:54;5.90;74.60
33007;DHT22;19361;51.598;7.650;2023-12-07T03:54:54;5.90;74.50
33007;DHT22;19361;51.598;7.650;2023-12-07T03:59:55;5.90;74.40
33007;DHT22;19361;51.598;7.650;2023-12-07T04:04:56;5.90;74.80
33007;DHT22;19361;51.598;7.650;2023-12-07T04:10:02;5.90;74.50
33007;DHT22;19361;51.598;7.650;2023-12-07T04:15:06;5.80;74.20
33007;DHT22;19361;51.598;7.650;2023-12-07T04:20:07;5.70;74.00
33007;DHT22;19361;51.598;7.650;2023-12-07T04:25:09;5.70;73.80
33007;DHT22;19361;51.598;7.650;2023-12-07T04:30:10;5.60;73.60
33007;DHT22;19361;51.598;7.650;2023-12-07T04:35:12;5.50;73.60
33007;DHT22;19361;51.598;7.650;2023-12-07T04:40:12;5.40;73.40
33007;DHT22;19361;51.598;7.650;2023-12-07T04:45:13;5.30;73.40
33007;DHT22;19361;51.598;7.650;2023-12-07T04:50:14;5.20;73.40
33007;DHT22;19361;51.598;7.650;2023-12-07T04:55:15;5.20;73.50
33007;DHT22;19361;51.598;7.650;2023-12-07T05:00:16;5.10;73.50
33007;DHT22;19361;51.598;7.650;2023-12-07T05:05:18;5.00;73.50
33007;DHT22;19361;51.598;7.650;2023-12-07T05:10:18;4.90;73.70
33007;DHT22;19361;51.598;7.650;2023-12-07T05:15:19;4.90;73.80
33007;DHT22;19361;51.598;7.650;2023-12-07T05:20:20;4.90;73.90
33007;DHT22;19361;51.598;7.650;2023-12-07T05:25:23;4.90;74.20
33007;DHT22;19361;51.598;7.650;2023-12-07T05:30:23;4.80;74.50
33007;DHT22;19361;51.598;7.650;2023-12-07T05:35:24;4.80;74.60
33007;DHT22;19361;51.598;7.650;2023-12-07T05:40:25;4.90;74.70
33007;DHT22;19361;51.598;7.650;2023-12-07T05:45:26;4.90;74.80
33007;DHT22;19361;51.598;7.650;2023-12-07T05:50:26;4.90;74.80
33007;DHT22;19361;51.598;7.650;2023-12-07T05:55:27;4.90;74.70
33007;DHT22;19361;51.598;7.650;2023-12-07T06:00:28;4.90;74.70
33007;DHT22;19361;51.598;7.650;2023-12-07T06:05:28;5.00;74.70
33007;DHT22;19361;51.598;7.650;2023-12-07T06:10:29;5.00;75.40
33007;DHT22;19361;51.598;7.650;2023-12-07T06:15:30;5.00;74.90
33007;DHT22;19361;51.598;7.650;2023-12-07T06:20:31;5.00;75.00
33007;DHT22;19361;51.598;7.650;2023-12-07T06:25:31;5.00;75.00
33007;DHT22;19361;51.598;7.650;2023-12-07T06:30:32;5.00;75.10
33007;DHT22;19361;51.598;7.650;2023-12-07T06:35:33;5.00;75.10
33007;DHT22;19361;51.598;7.650;2023-12-07T06:40:34;5.00;75.10
33007;DHT22;19361;51.598;7.650;2023-12-07T06:45:34;5.00;75.10
33007;DHT22;19361;51.598;7.650;2023-12-07T06:50:35;5.10;75.20
33007;DHT22;19361;51.598;7.650;2023-12-07T06:55:36;5.10;75.20
33007;DHT22;19361;51.598;7.650;2023-12-07T07:00:36;5.10;75.10
33007;DHT22;19361;51.598;7.650;2023-12-07T07:05:37;5.20;75.60
33007;DHT22;19361;51.598;7.650;2023-12-07T07:10:38;5.20;75.00
33007;DHT22;19361;51.598;7.650;2023-12-07T07:15:38;5.20;74.90
33007;DHT22;19361;51.598;7.650;2023-12-07T07:20:39;5.20;74.50
33007;DHT22;19361;51.598;7.650;2023-12-07T07:25:40;5.10;74.10
33007;DHT22;19361;51.598;7.650;2023-12-07T07:30:40;5.00;73.90
33007;DHT22;19361;51.598;7.650;2023-12-07T07:35:41;5.00;73.80
33007;DHT22;19361;51.598;7.650;2023-12-07T07:40:42;4.90;73.90
33007;DHT22;19361;51.598;7.650;2023-12-07T07:45:42;4.80;73.90
33007;DHT22;19361;51.598;7.650;2023-12-07T07:50:43;4.80;73.90
33007;DHT22;19361;51.598;7.650;2023-12-07T07:55:44;4.70;73.90
33007;DHT22;19361;51.598;7.650;2023-12-07T08:00:44;4.60;73.90
33007;DHT22;19361;51.598;7.650;2023-12-07T08:05:46;4.60;74.00
33007;DHT22;19361;51.598;7.650;2023-12-07T08:10:47;4.60;74.10
33007;DHT22;19361;51.598;7.650;2023-12-07T08:15:48;4.50;74.10
33007;DHT22;19361;51.598;7.650;2023-12-07T08:20:48;4.50;74.20
33007;DHT22;19361;51.598;7.650;2023-12-07T08:25:49;4.50;74.30
33007;DHT22;19361;51.598;7.650;2023-12-07T08:30:50;4.50;74.40
33007;DHT22;19361;51.598;7.650;2023-12-07T08:35:50;4.50;74.50
33007;DHT22;19361;51.598;7.650;2023-12-07T08:40:54;4.60;74.60
33007;DHT22;19361;51.598;7.650;2023-12-07T08:45:55;4.60;74.80
33007;DHT22;19361;51.598;7.650;2023-12-07T08:50:56;4.70;75.10
33007;DHT22;19361;51.598;7.650;2023-12-07T08:55:57;4.70;75.20
33007;DHT22;19361;51.598;7.650;2023-12-07T09:00:58;4.80;75.20
33007;DHT22;19361;51.598;7.650;2023-12-07T09:06:01;4.90;75.30
33007;DHT22;19361;51.598;7.650;2023-12-07T09:11:02;5.00;75.30
33007;DHT22;19361;51.598;7.650;2023-12-07T09:16:04;5.10;75.40
33007;DHT22;19361;51.598;7.650;2023-12-07T09:21:06;5.20;75.40
33007;DHT22;19361;51.598;7.650;2023-12-07T09:26:06;5.20;75.40
33007;DHT22;19361;51.598;7.650;2023-12-07T09:31:08;5.30;75.50
33007;DHT22;19361;51.598;7.650;2023-12-07T09:36:09;5.40;75.50
33007;DHT22;19361;51.598;7.650;2023-12-07T09:41:11;5.50;75.40
33007;DHT22;19361;51.598;7.650;2023-12-07T09:46:13;5.60;75.30
33007;DHT22;19361;51.598;7.650;2023-12-07T09:51:15;5.70;75.20
33007;DHT22;19361;51.598;7.650;2023-12-07T09:56:16;5.80;75.30
33007;DHT22;19361;51.598;7.650;2023-12-07T10:01:17;5.90;75.30
33007;DHT22;19361;51.598;7.650;2023-12-07T10:06:17;6.00;75.00
33007;DHT22;19361;51.598;7.650;2023-12-07T10:11:18;6.20;74.80
33007;DHT22;19361;51.598;7.650;2023-12-07T10:16:19;6.20;74.80
33007;DHT22;19361;51.598;7.650;2023-12-07T10:21:32;6.30;74.40
33007;DHT22;19361;51.598;7.650;2023-12-07T10:26:33;6.50;73.80
33007;DHT22;19361;51.598;7.650;2023-12-07T10:31:37;6.50;73.50
33007;DHT22;19361;51.598;7.650;2023-12-07T10:36:37;6.70;73.60
33007;DHT22;19361;51.598;7.650;2023-12-07T10:41:39;6.70;73.50
33007;DHT22;19361;51.598;7.650;2023-12-07T10:46:44;6.80;72.50
33007;DHT22;19361;51.598;7.650;2023-12-07T10:51:51;6.90;73.00
33007;DHT22;19361;51.598;7.650;2023-12-07T10:56:55;7.00;72.30
33007;DHT22;19361;51.598;7.650;2023-12-07T11:01:57;7.10;72.00
33007;DHT22;19361;51.598;7.650;2023-12-07T11:07:05;7.20;71.20
33007;DHT22;19361;51.598;7.650;2023-12-07T11:12:34;7.30;71.50
33007;DHT22;19361;51.598;7.650;2023-12-07T11:17:56;7.30;71.20
33007;DHT22;19361;51.598;7.650;2023-12-07T11:22:57;7.50;70.60
33007;DHT22;19361;51.598;7.650;2023-12-07T11:28:04;7.60;71.00
33007;DHT22;19361;51.598;7.650;2023-12-07T11:33:06;7.60;71.00
33007;DHT22;19361;51.598;7.650;2023-12-07T11:38:08;7.70;70.90
33007;DHT22;19361;51.598;7.650;2023-12-07T11:43:37;7.70;69.80
33007;DHT22;19361;51.598;7.650;2023-12-07T11:48:46;7.80;68.90
33007;DHT22;19361;51.598;7.650;2023-12-07T11:53:47;7.80;68.80
33007;DHT22;19361;51.598;7.650;2023-12-07T11:58:50;7.80;68.60
33007;DHT22;19361;51.598;7.650;2023-12-07T12:03:53;7.80;68.50
33007;DHT22;19361;51.598;7.650;2023-12-07T12:08:56;7.90;68.10
33007;DHT22;19361;51.598;7.650;2023-12-07T12:13:56;7.90;67.70
33007;DHT22;19361;51.598;7.650;2023-12-07T12:18:57;8.00;67.50
33007;DHT22;19361;51.598;7.650;2023-12-07T12:23:58;8.00;67.00
33007;DHT22;19361;51.598;7.650;2023-12-07T12:28:59;8.00;66.60
33007;DHT22;19361;51.598;7.650;2023-12-07T12:34:07;8.00;66.80
33007;DHT22;19361;51.598;7.650;2023-12-07T12:39:12;8.10;65.40
33007;DHT22;19361;51.598;7.650;2023-12-07T12:44:13;8.10;65.60
33007;DHT22;19361;51.598;7.650;2023-12-07T12:49:13;8.10;65.10
33007;DHT22;19361;51.598;7.650;2023-12-07T12:54:14;8.10;65.50
33007;DHT22;19361;51.598;7.650;2023-12-07T12:59:15;8.10;65.20
33007;DHT22;19361;51.598;7.650;2023-12-07T13:04:16;8.10;64.90
33007;DHT22;19361;51.598;7.650;2023-12-07T13:09:16;8.10;65.30
33007;DHT22;19361;51.598;7.650;2023-12-07T13:14:17;8.10;64.80
33007;DHT22;19361;51.598;7.650;2023-12-07T13:19:18;8.10;64.40
33007;DHT22;19361;51.598;7.650;2023-12-07T13:24:20;8.10;64.50
33007;DHT22;19361;51.598;7.650;2023-12-07T13:29:23;8.10;64.70
33007;DHT22;19361;51.598;7.650;2023-12-07T13:34:23;8.00;64.30
33007;DHT22;19361;51.598;7.650;2023-12-07T13:39:26;7.90;64.60
33007;DHT22;19361;51.598;7.650;2023-12-07T13:44:27;7.90;63.90
33007;DHT22;19361;51.598;7.650;2023-12-07T13:49:28;7.80;64.30
33007;DHT22;19361;51.598;7.650;2023-12-07T13:54:29;7.70;64.50
33007;DHT22;19361;51.598;7.650;2023-12-07T13:59:33;7.70;64.90
33007;DHT22;19361;51.598;7.650;2023-12-07T14:04:34;7.60;64.80
33007;DHT22;19361;51.598;7.650;2023-12-07T14:09:34;7.50;64.80
33007;DHT22;19361;51.598;7.650;2023-12-07T14:14:35;7.50;64.70
33007;DHT22;19361;51.598;7.650;2023-12-07T14:19:36;7.40;64.50
33007;DHT22;19361;51.598;7.650;2023-12-07T14:24:38;7.40;64.80
33007;DHT22;19361;51.598;7.650;2023-12-07T14:29:39;7.30;64.60
33007;DHT22;19361;51.598;7.650;2023-12-07T14:34:40;7.20;64.70
33007;DHT22;19361;51.598;7.650;2023-12-07T14:39:40;7.20;64.80
33007;DHT22;19361;51.598;7.650;2023-12-07T14:44:41;7.20;64.80
33007;DHT22;19361;51.598;7.650;2023-12-07T14:49:42;7.10;64.80
33007;DHT22;19361;51.598;7.650;2023-12-07T14:54:42;7.10;64.70
33007;DHT22;19361;51.598;7.650;2023-12-07T14:59:43;7.00;64.90
33007;DHT22;19361;51.598;7.650;2023-12-07T15:04:44;6.90;64.60
33007;DHT22;19361;51.598;7.650;2023-12-07T15:09:45;6.80;64.50
33007;DHT22;19361;51.598;7.650;2023-12-07T15:14:49;6.80;64.50
33007;DHT22;19361;51.598;7.650;2023-12-07T15:19:49;6.70;64.50
33007;DHT22;19361;51.598;7.650;2023-12-07T15:24:50;6.60;64.70
33007;DHT22;19361;51.598;7.650;2023-12-07T15:29:51;6.50;64.90
33007;DHT22;19361;51.598;7.650;2023-12-07T15:34:52;6.40;65.10
33007;DHT22;19361;51.598;7.650;2023-12-07T15:39:52;6.40;65.30
33007;DHT22;19361;51.598;7.650;2023-12-07T15:44:53;6.30;65.50
33007;DHT22;19361;51.598;7.650;2023-12-07T15:49:54;6.20;65.70
33007;DHT22;19361;51.598;7.650;2023-12-07T15:54:54;6.20;65.80
33007;DHT22;19361;51.598;7.650;2023-12-07T15:59:55;6.10;66.00
33007;DHT22;19361;51.598;7.650;2023-12-07T16:04:56;6.00;66.10
33007;DHT22;19361;51.598;7.650;2023-12-07T16:09:56;5.90;66.30
33007;DHT22;19361;51.598;7.650;2023-12-07T16:14:57;5.90;66.40
33007;DHT22;19361;51.598;7.650;2023-12-07T16:19:58;5.80;66.50
33007;DHT22;19361;51.598;7.650;2023-12-07T16:24:59;5.80;66.60
33007;DHT22;19361;51.598;7.650;2023-12-07T16:30:03;5.70;66.70
33007;DHT22;19361;51.598;7.650;2023-12-07T16:35:06;5.60;66.80
33007;DHT22;19361;51.598;7.650;2023-12-07T16:40:07;5.60;66.90
33007;DHT22;19361;51.598;7.650;2023-12-07T16:45:09;5.50;67.00
33007;DHT22;19361;51.598;7.650;2023-12-07T16:50:10;5.50;67.00
33007;DHT22;19361;51.598;7.650;2023-12-07T16:55:11;5.50;67.20
33007;DHT22;19361;51.598;7.650;2023-12-07T17:00:13;5.50;67.20
33007;DHT22;19361;51.598;7.650;2023-12-07T17:05:14;5.40;67.30
33007;DHT22;19361;51.598;7.650;2023-12-07T17:10:15;5.40;67.40
33007;DHT22;19361;51.598;7.650;2023-12-07T17:15:15;5.30;67.50
33007;DHT22;19361;51.598;7.650;2023-12-07T17:20:16;5.30;67.60
33007;DHT22;19361;51.598;7.650;2023-12-07T17:25:17;5.30;67.60
33007;DHT22;19361;51.598;7.650;2023-12-07T17:30:22;5.20;67.60
33007;DHT22;19361;51.598;7.650;2023-12-07T17:35:24;5.20;67.70
33007;DHT22;19361;51.598;7.650;2023-12-07T17:40:24;5.20;67.60
33007;DHT22;19361;51.598;7.650;2023-12-07T17:45:26;5.10;67.60
33007;DHT22;19361;51.598;7.650;2023-12-07T17:50:27;5.10;67.50
33007;DHT22;19361;51.598;7.650;2023-12-07T17:55:27;5.10;67.50
33007;DHT22;19361;51.598;7.650;2023-12-07T18:00:28;5.00;67.40
33007;DHT22;19361;51.598;7.650;2023-12-07T18:05:28;5.00;67.40
33007;DHT22;19361;51.598;7.650;2023-12-07T18:10:29;5.00;67.20
33007;DHT22;19361;51.598;7.650;2023-12-07T18:15:30;5.00;67.30
33007;DHT22;19361;51.598;7.650;2023-12-07T18:20:30;4.90;67.30
33007;DHT22;19361;51.598;7.650;2023-12-07T18:25:31;4.90;67.20
33007;DHT22;19361;51.598;7.650;2023-12-07T18:30:32;4.90;67.30
33007;DHT22;19361;51.598;7.650;2023-12-07T18:35:32;4.80;67.20
33007;DHT22;19361;51.598;7.650;2023-12-07T18:40:34;4.80;67.10
33007;DHT22;19361;51.598;7.650;2023-12-07T18:45:39;4.80;67.10
33007;DHT22;19361;51.598;7.650;2023-12-07T18:50:40;4.80;67.10
33007;DHT22;19361;51.598;7.650;2023-12-07T18:55:41;4.80;67.10
33007;DHT22;19361;51.598;7.650;2023-12-07T19:00:42;4.80;67.20
33007;DHT22;19361;51.598;7.650;2023-12-07T19:05:42;4.80;67.10
33007;DHT22;19361;51.598;7.650;2023-12-07T19:10:44;4.70;67.00
33007;DHT22;19361;51.598;7.650;2023-12-07T19:15:45;4.70;67.00
33007;DHT22;19361;51.598;7.650;2023-12-07T19:20:46;4.70;67.10
33007;DHT22;19361;51.598;7.650;2023-12-07T19:25:47;4.70;67.30
33007;DHT22;19361;51.598;7.650;2023-12-07T19:30:47;4.60;67.20
33007;DHT22;19361;51.598;7.650;2023-12-07T19:35:48;4.60;67.10
33007;DHT22;19361;51.598;7.650;2023-12-07T19:40:48;4.60;67.20
33007;DHT22;19361;51.598;7.650;2023-12-07T19:45:49;4.60;67.20
33007;DHT22;19361;51.598;7.650;2023-12-07T19:50:50;4.60;67.30
33007;DHT22;19361;51.598;7.650;2023-12-07T19:55:50;4.50;67.60
33007;DHT22;19361;51.598;7.650;2023-12-07T20:00:51;4.50;67.10
33007;DHT22;19361;51.598;7.650;2023-12-07T20:05:52;4.50;67.00
33007;DHT22;19361;51.598;7.650;2023-12-07T20:10:53;4.50;67.20
33007;DHT22;19361;51.598;7.650;2023-12-07T20:15:53;4.50;67.30
33007;DHT22;19361;51.598;7.650;2023-12-07T20:20:54;4.40;67.40
33007;DHT22;19361;51.598;7.650;2023-12-07T20:25:55;4.50;67.60
33007;DHT22;19361;51.598;7.650;2023-12-07T20:30:55;4.40;67.60
33007;DHT22;19361;51.598;7.650;2023-12-07T20:35:56;4.40;67.60
33007;DHT22;19361;51.598;7.650;2023-12-07T20:40:57;4.50;67.60
33007;DHT22;19361;51.598;7.650;2023-12-07T20:45:58;4.40;67.70
33007;DHT22;19361;51.598;7.650;2023-12-07T20:50:59;4.50;67.70
33007;DHT22;19361;51.598;7.650;2023-12-07T20:56:00;4.50;67.50
33007;DHT22;19361;51.598;7.650;2023-12-07T21:01:01;4.50;67.50
33007;DHT22;19361;51.598;7.650;2023-12-07T21:06:01;4.50;67.50
33007;DHT22;19361;51.598;7.650;2023-12-07T21:11:02;4.50;67.70
33007;DHT22;19361;51.598;7.650;2023-12-07T21:16:04;4.50;67.90
33007;DHT22;19361;51.598;7.650;2023-12-07T21:21:05;4.50;67.70
33007;DHT22;19361;51.598;7.650;2023-12-07T21:26:05;4.60;67.70
33007;DHT22;19361;51.598;7.650;2023-12-07T21:31:06;4.60;67.60
33007;DHT22;19361;51.598;7.650;2023-12-07T21:36:10;4.60;67.50
33007;DHT22;19361;51.598;7.650;2023-12-07T21:41:11;4.60;67.40
33007;DHT22;19361;51.598;7.650;2023-12-07T21:46:11;4.60;67.50
33007;DHT22;19361;51.598;7.650;2023-12-07T21:51:12;4.60;67.50
33007;DHT22;19361;51.598;7.650;2023-12-07T21:56:13;4.60;67.50
33007;DHT22;19361;51.598;7.650;2023-12-07T22:01:17;4.60;67.40
33007;DHT22;19361;51.598;7.650;2023-12-07T22:06:24;4.60;67.50
33007;DHT22;19361;51.598;7.650;2023-12-07T22:11:26;4.60;67.50
33007;DHT22;19361;51.598;7.650;2023-12-07T22:16:27;4.60;67.30
33007;DHT22;19361;51.598;7.650;2023-12-07T22:21:27;4.60;67.20
33007;DHT22;19361;51.598;7.650;2023-12-07T22:26:28;4.60;67.30
33007;DHT22;19361;51.598;7.650;2023-12-07T22:31:29;4.70;66.80
33007;DHT22;19361;51.598;7.650;2023-12-07T22:36:29;4.70;67.00
33007;DHT22;19361;51.598;7.650;2023-12-07T22:41:30;4.70;66.90
33007;DHT22;19361;51.598;7.650;2023-12-07T22:46:31;4.70;66.70
33007;DHT22;19361;51.598;7.650;2023-12-07T22:51:32;4.80;66.90
33007;DHT22;19361;51.598;7.650;2023-12-07T22:56:32;4.80;66.70
33007;DHT22;19361;51.598;7.650;2023-12-07T23:01:33;4.80;66.80
33007;DHT22;19361;51.598;7.650;2023-12-07T23:06:34;4.80;66.30
33007;DHT22;19361;51.598;7.650;2023-12-07T23:11:34;4.80;65.20
33007;DHT22;19361;51.598;7.650;2023-12-07T23:16:35;4.90;64.80
33007;DHT22;19361;51.598;7.650;2023-12-07T23:21:36;5.00;64.50
33007;DHT22;19361;51.598;7.650;2023-12-07T23:26:36;5.00;65.30
33007;DHT22;19361;51.598;7.650;2023-12-07T23:31:37;5.00;65.40
33007;DHT22;19361;51.598;7.650;2023-12-07T23:36:38;5.10;65.40
33007;DHT22;19361;51.598;7.650;2023-12-07T23:41:39;5.10;65.40
33007;DHT22;19361;51.598;7.650;2023-12-07T23:46:43;5.00;65.40
33007;DHT22;19361;51.598;7.650;2023-12-07T23:51:44;5.00;65.30
33007;DHT22;19361;51.598;7.650;2023-12-07T23:56:45;5.10;64.90
